Time;durP1;ratioP1;P1;durP2;ratioP2;P2;SDS_P1;SDS_P2;PMS_P1;PMS_P2;Temp;Humidity;BMP_temperature;BMP_pressure;BME280_temperature;BME280_humidity;BME280_pressure;Samples;Min_cycle;Max_cycle;Signal;HPM_P1;HPM_P2
2022/11/08 00:01:34;;;;;;;6.10;3.90;;;;;;;6.89;89.63;96969.44;105599;1297;22452;-79
2022/11/08 00:04:07;;;;;;;5.60;3.90;;;;;;;6.92;89.59;96971.96;105638;1291;24028;-79
2022/11/08 00:15:07;;;;;;;5.50;3.70;;;;;;;6.93;89.79;96968.02;105682;1290;23389;-80
2022/11/08 00:17:37;;;;;;;6.70;3.80;;;;;;;6.98;89.72;96964.95;105587;1289;22495;-79
2022/11/08 00:20:11;;;;;;;5.20;3.70;;;;;;;7.03;89.72;96970.76;105644;1278;22586;-80
2022/11/08 00:22:42;;;;;;;7.00;3.90;;;;;;;7.06;89.70;96964.33;105700;1297;22474;-79
2022/11/08 00:25:13;;;;;;;6.20;3.90;;;;;;;7.08;89.76;96968.67;105640;1275;22454;-79
2022/11/08 00:27:44;;;;;;;4.80;3.60;;;;;;;7.10;89.63;96970.84;105605;1297;22476;-79
2022/11/08 00:30:15;;;;;;;5.80;3.70;;;;;;;7.12;89.67;96970.13;105665;1280;22485;-80
2022/11/08 00:32:46;;;;;;;8.30;3.60;;;;;;;7.19;89.73;96971.57;105684;1300;24407;-80
2022/11/08 00:35:17;;;;;;;5.40;3.30;;;;;;;7.26;89.66;96972.86;105670;1292;23650;-80
2022/11/08 00:37:48;;;;;;;5.70;3.50;;;;;;;7.30;89.52;96971.73;104715;1296;1177018;-80
2022/11/08 00:40:19;;;;;;;6.70;3.80;;;;;;;7.32;89.40;96972.80;105664;1298;22548;-80
2022/11/08 00:42:50;;;;;;;6.30;3.40;;;;;;;7.32;89.23;96972.52;105631;1300;22470;-80
2022/11/08 00:45:21;;;;;;;4.70;3.20;;;;;;;7.34;89.30;96969.33;105657;1299;22457;-80
2022/11/08 00:47:52;;;;;;;5.20;3.30;;;;;;;7.36;89.13;96967.86;105595;1297;24331;-80
2022/11/08 00:50:23;;;;;;;5.90;3.40;;;;;;;7.38;89.29;96963.70;105670;1297;22525;-80
2022/11/08 00:52:54;;;;;;;4.50;3.40;;;;;;;7.40;89.20;96965.95;105649;1297;22456;-80
2022/11/08 00:55:25;;;;;;;7.00;3.90;;;;;;;7.43;89.10;96968.65;105684;1282;22491;-80
2022/11/08 00:57:56;;;;;;;5.80;3.70;;;;;;;7.44;89.15;96970.77;105641;1297;24854;-80
2022/11/08 01:00:28;;;;;;;5.60;3.40;;;;;;;7.49;89.17;96971.00;105664;1297;22491;-80
2022/11/08 01:05:46;;;;;;;5.80;3.50;;;;;;;7.56;88.81;96969.73;105661;1297;22511;-80
2022/11/08 01:08:17;;;;;;;6.20;3.70;;;;;;;7.56;88.94;96966.30;105590;1297;24275;-80
2022/11/08 01:10:50;;;;;;;6.40;3.30;;;;;;;7.57;88.84;96966.20;105641;1297;24890;-80
2022/11/08 01:13:21;;;;;;;5.80;4.00;;;;;;;7.56;88.79;96964.23;105686;1275;25315;-80
2022/11/08 01:15:52;;;;;;;6.00;3.90;;;;;;;7.58;88.92;96963.00;105637;1282;22463;-80
2022/11/08 01:18:23;;;;;;;4.80;3.30;;;;;;;7.63;88.75;96958.62;105596;1297;23774;-79
2022/11/08 01:20:54;;;;;;;6.40;3.30;;;;;;;7.63;88.63;96960.95;105664;1282;24516;-80
2022/11/08 01:23:25;;;;;;;4.20;2.60;;;;;;;7.62;88.66;96956.52;105644;1297;25633;-80
2022/11/08 01:25:56;;;;;;;6.10;3.30;;;;;;;7.62;88.49;96963.73;105660;1276;22470;-80
2022/11/08 01:28:27;;;;;;;4.10;2.30;;;;;;;7.62;88.60;96960.98;105628;1278;22574;-80
2022/11/08 01:30:58;;;;;;;5.20;3.30;;;;;;;7.59;88.42;96963.38;105671;1297;24326;-80
2022/11/08 01:33:29;;;;;;;5.20;3.30;;;;;;;7.57;88.52;96959.34;105679;1297;22463;-80
2022/11/08 01:36:00;;;;;;;4.80;3.10;;;;;;;7.55;88.53;96960.17;105671;1289;23746;-80
2022/11/08 01:38:31;;;;;;;5.90;3.30;;;;;;;7.54;88.41;96958.74;105620;1297;22501;-80
2022/11/08 01:41:02;;;;;;;4.30;3.00;;;;;;;7.54;88.69;96959.59;105677;1300;22455;-80
2022/11/08 01:43:40;;;;;;;4.90;3.10;;;;;;;7.56;88.47;96956.27;105615;1291;22513;-80
2022/11/08 01:46:35;;;;;;;5.00;3.20;;;;;;;7.52;88.49;96956.24;105618;1293;22470;-79
2022/11/08 01:49:40;;;;;;;4.80;2.80;;;;;;;7.44;88.47;96955.06;105580;1289;22522;-80
2022/11/08 01:52:35;;;;;;;5.70;3.20;;;;;;;7.35;88.49;96952.08;105670;1297;22477;-79
2022/11/08 01:55:15;;;;;;;6.00;3.20;;;;;;;7.29;88.71;96947.15;105657;1282;22462;-79
2022/11/08 01:57:52;;;;;;;4.20;2.80;;;;;;;7.22;88.64;96953.14;105545;1296;22454;-79
2022/11/08 02:00:23;;;;;;;6.50;3.10;;;;;;;7.12;88.77;96953.27;105593;1297;22462;-79
2022/11/08 02:02:59;;;;;;;4.70;3.00;;;;;;;7.05;88.85;96955.18;105680;1291;22456;-79
2022/11/08 02:05:33;;;;;;;5.10;2.80;;;;;;;7.04;89.31;96955.08;105669;1297;22653;-79
2022/11/08 02:08:10;;;;;;;5.10;3.10;;;;;;;7.05;89.54;96952.92;105643;1296;24523;-79
2022/11/08 02:10:44;;;;;;;5.80;3.20;;;;;;;7.06;89.65;96953.40;105609;1297;22466;-79
2022/11/08 02:13:18;;;;;;;4.20;2.60;;;;;;;7.07;89.99;96950.57;105646;1284;22457;-79
2022/11/08 02:15:49;;;;;;;6.00;3.00;;;;;;;7.15;90.37;96947.38;105701;1297;22546;-79
2022/11/08 02:18:23;;;;;;;5.10;3.40;;;;;;;7.28;90.44;96942.34;105615;1290;22449;-79
2022/11/08 02:21:03;;;;;;;5.90;2.80;;;;;;;7.36;90.39;96936.42;105615;1290;22654;-79
2022/11/08 02:23:45;;;;;;;4.70;3.20;;;;;;;7.43;90.30;96938.48;105681;1297;22478;-79
2022/11/08 02:26:17;;;;;;;5.40;2.60;;;;;;;7.49;89.95;96940.08;105648;1292;22458;-79
2022/11/08 02:28:50;;;;;;;5.20;2.70;;;;;;;7.50;89.89;96943.30;105611;1297;25168;-80
2022/11/08 02:31:21;;;;;;;4.10;2.40;;;;;;;7.50;89.78;96942.36;105637;1285;22481;-79
2022/11/08 02:33:53;;;;;;;6.80;3.10;;;;;;;7.51;89.78;96938.50;105654;1298;22519;-79
2022/11/08 02:36:25;;;;;;;5.50;2.80;;;;;;;7.51;89.57;96941.88;105642;1285;22504;-79
2022/11/08 02:38:57;;;;;;;5.10;3.10;;;;;;;7.45;89.49;96940.39;105626;1290;22452;-79
2022/11/08 02:41:28;;;;;;;4.70;2.60;;;;;;;7.40;89.38;96941.04;105658;1296;22475;-79
2022/11/08 02:44:00;;;;;;;5.10;3.00;;;;;;;7.33;89.43;96938.45;105672;1289;22469;-79
2022/11/08 02:46:31;;;;;;;4.50;2.70;;;;;;;7.28;89.44;96935.48;105629;1275;22478;-79
2022/11/08 02:49:02;;;;;;;5.30;3.20;;;;;;;7.22;89.41;96932.86;105599;1286;23125;-79
2022/11/08 02:51:33;;;;;;;4.70;3.20;;;;;;;7.17;89.67;96935.31;105649;1297;24253;-79
2022/11/08 02:54:05;;;;;;;4.40;3.00;;;;;;;7.11;89.59;96940.48;105633;1297;25166;-79
2022/11/08 02:56:36;;;;;;;4.90;3.10;;;;;;;7.06;89.70;96939.48;105660;1297;22452;-79
2022/11/08 02:59:10;;;;;;;4.50;2.90;;;;;;;6.99;89.79;96936.71;105604;1290;22463;-79
2022/11/08 03:01:41;;;;;;;6.80;2.90;;;;;;;6.92;89.76;96942.91;105672;1267;22454;-79
2022/11/08 03:04:12;;;;;;;3.80;2.80;;;;;;;6.85;89.96;96943.88;105627;1287;22466;-79
2022/11/08 03:06:43;;;;;;;3.40;2.70;;;;;;;6.82;90.17;96943.48;105634;1294;22443;-79
2022/11/08 03:09:14;;;;;;;6.40;2.80;;;;;;;6.82;90.27;96944.95;105595;1282;22541;-79
2022/11/08 03:11:48;;;;;;;5.50;3.10;;;;;;;6.82;90.40;96943.48;105657;1284;22498;-79
2022/11/08 03:14:19;;;;;;;5.40;3.10;;;;;;;6.84;90.59;96943.34;105627;1300;24280;-79
2022/11/08 03:16:50;;;;;;;5.50;2.90;;;;;;;6.83;90.49;96940.27;105659;1292;22622;-79
2022/11/08 03:19:21;;;;;;;3.90;2.70;;;;;;;6.83;90.57;96943.06;105624;1297;22458;-79
2022/11/08 03:21:52;;;;;;;4.20;2.50;;;;;;;6.80;90.37;96940.55;105678;1297;22456;-79
2022/11/08 03:24:24;;;;;;;4.60;2.50;;;;;;;6.77;90.60;96941.95;105687;1289;22466;-79
2022/11/08 03:26:55;;;;;;;4.20;2.50;;;;;;;6.76;90.64;96939.29;105687;1289;22492;-79
2022/11/08 03:29:27;;;;;;;5.20;2.60;;;;;;;6.75;90.93;96936.80;105579;1291;22467;-79
2022/11/08 03:31:58;;;;;;;4.70;2.90;;;;;;;6.76;90.98;96939.13;105659;1298;22515;-79
2022/11/08 03:34:29;;;;;;;4.30;2.90;;;;;;;6.73;90.89;96940.57;105630;1291;22502;-79
2022/11/08 03:37:00;;;;;;;5.60;2.40;;;;;;;6.68;90.82;96938.46;105643;1298;22514;-79
2022/11/08 03:39:31;;;;;;;3.70;2.70;;;;;;;6.64;91.02;96937.20;105602;1298;32601;-79
2022/11/08 03:42:03;;;;;;;3.90;2.60;;;;;;;6.65;91.07;96936.73;105668;1282;22561;-79
2022/11/08 03:44:35;;;;;;;5.10;2.60;;;;;;;6.64;91.28;96934.73;105681;1298;22471;-79
2022/11/08 03:47:06;;;;;;;3.60;2.40;;;;;;;6.67;91.23;96933.49;105609;1286;24136;-78
2022/11/08 03:49:37;;;;;;;5.60;3.10;;;;;;;6.69;91.32;96932.52;105656;1288;22514;-79
2022/11/08 03:52:08;;;;;;;5.00;3.00;;;;;;;6.70;91.14;96935.95;105664;1291;22698;-79
2022/11/08 03:54:41;;;;;;;6.40;3.20;;;;;;;6.73;91.42;96938.77;105634;1292;25424;-79
2022/11/08 03:57:13;;;;;;;5.10;3.10;;;;;;;6.79;91.25;96931.80;105605;1285;25322;-79
2022/11/08 03:59:45;;;;;;;3.00;2.10;;;;;;;6.83;91.33;96934.16;105686;1291;22448;-79
2022/11/08 04:02:16;;;;;;;5.00;3.10;;;;;;;6.85;91.18;96933.34;105642;1297;24337;-79
2022/11/08 04:04:47;;;;;;;4.50;3.00;;;;;;;6.88;91.28;96936.21;105663;1282;22631;-79
2022/11/08 04:07:20;;;;;;;4.80;3.00;;;;;;;6.92;91.17;96934.64;105660;1289;23162;-79
2022/11/08 04:09:51;;;;;;;5.50;3.10;;;;;;;6.96;91.25;96933.78;105644;1289;24308;-80
2022/11/08 04:15:15;;;;;;;4.80;3.30;;;;;;;7.03;90.87;96929.73;105666;1275;22472;-79
2022/11/08 04:23:32;;;;;;;7.10;3.60;;;;;;;7.00;90.92;96928.66;105653;1297;22462;-79
2022/11/08 04:26:05;;;;;;;5.00;3.60;;;;;;;7.00;90.77;96930.39;105620;1297;22449;-80
2022/11/08 04:28:38;;;;;;;6.80;3.80;;;;;;;6.99;90.55;96927.64;105632;1275;25211;-79
2022/11/08 04:31:12;;;;;;;5.80;3.60;;;;;;;6.98;90.64;96931.80;105729;1281;22492;-80
2022/11/08 04:33:43;;;;;;;5.90;3.00;;;;;;;6.98;90.67;96932.59;105712;1291;22475;-80
2022/11/08 04:36:16;;;;;;;3.70;2.70;;;;;;;6.98;90.62;96930.42;105671;1288;22487;-79
2022/11/08 04:38:49;;;;;;;6.00;3.00;;;;;;;6.97;90.51;96932.84;105609;1282;22476;-79
2022/11/08 04:41:22;;;;;;;6.60;3.70;;;;;;;6.95;90.40;96925.03;105705;1297;22470;-79
2022/11/08 04:43:54;;;;;;;6.50;3.00;;;;;;;6.94;90.33;96927.86;105695;1297;22474;-80
2022/11/08 04:46:27;;;;;;;6.80;3.60;;;;;;;6.92;90.37;96927.41;105636;1275;22476;-80
2022/11/08 04:49:00;;;;;;;5.20;2.80;;;;;;;6.88;90.27;96929.00;105639;1291;26171;-80
2022/11/08 04:51:32;;;;;;;5.50;3.10;;;;;;;6.85;90.38;96932.33;105662;1299;22501;-80
2022/11/08 04:54:13;;;;;;;4.50;3.10;;;;;;;6.81;90.55;96931.03;105657;1278;22454;-79
2022/11/08 04:56:44;;;;;;;7.10;3.90;;;;;;;6.80;90.58;96932.97;105656;1290;24235;-79
2022/11/08 04:59:15;;;;;;;5.60;3.10;;;;;;;6.79;90.60;96934.39;105592;1298;22461;-79
2022/11/08 05:01:49;;;;;;;5.80;3.30;;;;;;;6.76;90.60;96930.77;105659;1297;23369;-79
2022/11/08 05:04:20;;;;;;;4.60;3.60;;;;;;;6.74;90.61;96931.63;105613;1299;22553;-79
2022/11/08 05:06:51;;;;;;;5.60;3.80;;;;;;;6.71;90.46;96927.68;105662;1298;24244;-80
2022/11/08 05:09:22;;;;;;;5.70;3.60;;;;;;;6.67;90.65;96929.28;105598;1297;25589;-80
2022/11/08 05:11:54;;;;;;;6.20;3.60;;;;;;;6.63;90.57;96926.80;105670;1275;25685;-80
2022/11/08 05:14:26;;;;;;;4.00;3.20;;;;;;;6.59;90.66;96928.96;105666;1289;24267;-80
2022/11/08 05:16:57;;;;;;;4.50;3.50;;;;;;;6.57;90.79;96928.05;105662;1297;25301;-80
2022/11/08 05:25:07;;;;;;;6.70;3.90;;;;;;;6.53;91.16;96926.27;105670;1284;22492;-80
2022/11/08 05:27:38;;;;;;;5.40;3.30;;;;;;;6.54;91.32;96934.70;105653;1282;22537;-79
2022/11/08 05:30:12;;;;;;;5.30;3.30;;;;;;;6.52;91.22;96933.31;105665;1289;22532;-80
2022/11/08 05:32:43;;;;;;;5.80;3.40;;;;;;;6.51;91.33;96932.40;105809;1273;22475;-80
2022/11/08 05:35:14;;;;;;;5.20;3.40;;;;;;;6.51;91.42;96933.62;105789;1289;22461;-80
2022/11/08 05:37:45;;;;;;;7.60;3.70;;;;;;;6.49;91.42;96933.39;105662;1291;22597;-79
2022/11/08 05:40:17;;;;;;;6.00;3.60;;;;;;;6.53;91.67;96934.33;105689;1298;22610;-79
2022/11/08 05:42:48;;;;;;;6.80;4.10;;;;;;;6.57;91.61;96932.30;105648;1292;22506;-79
2022/11/08 05:45:20;;;;;;;4.70;3.10;;;;;;;6.58;91.71;96936.48;105630;1276;25336;-80
2022/11/08 05:47:51;;;;;;;6.40;3.50;;;;;;;6.63;91.71;96935.77;105580;1298;22526;-79
2022/11/08 05:50:22;;;;;;;6.70;3.50;;;;;;;6.69;91.83;96939.89;105631;1294;22534;-79
2022/11/08 05:52:55;;;;;;;6.30;4.10;;;;;;;6.68;91.48;96937.72;105685;1298;22484;-79
2022/11/08 05:55:27;;;;;;;5.80;3.70;;;;;;;6.70;91.49;96941.02;105628;1285;25370;-79
2022/11/08 05:57:58;;;;;;;5.20;3.60;;;;;;;6.72;91.47;96938.54;105639;1297;22462;-79
2022/11/08 06:00:29;;;;;;;8.20;4.20;;;;;;;6.84;91.63;96940.48;105670;1289;24226;-79
2022/11/08 06:03:05;;;;;;;6.50;3.90;;;;;;;6.99;91.45;96940.24;105725;1297;22663;-79
2022/11/08 06:05:36;;;;;;;7.80;4.60;;;;;;;7.06;91.06;96940.38;105670;1275;22462;-79
2022/11/08 06:08:08;;;;;;;5.90;3.70;;;;;;;7.16;90.89;96937.78;105647;1281;22455;-79
2022/11/08 06:10:39;;;;;;;6.50;3.70;;;;;;;7.34;90.80;96937.71;105687;1291;24251;-79
2022/11/08 06:13:11;;;;;;;5.50;3.80;;;;;;;7.62;90.42;96944.20;105645;1285;24242;-79
2022/11/08 06:15:42;;;;;;;5.80;3.60;;;;;;;7.86;89.77;96947.56;105645;1298;24260;-79
2022/11/08 06:18:13;;;;;;;5.60;3.80;;;;;;;8.16;89.31;96949.95;105590;1278;22467;-79
2022/11/08 06:20:44;;;;;;;6.90;3.80;;;;;;;8.46;88.51;96952.23;105668;1289;22456;-79
2022/11/08 06:23:15;;;;;;;6.10;3.90;;;;;;;8.55;87.67;96957.71;105670;1291;23223;-79
2022/11/08 06:25:48;;;;;;;7.10;3.50;;;;;;;8.67;87.38;96952.88;105677;1281;22462;-80
2022/11/08 06:28:19;;;;;;;4.60;3.10;;;;;;;8.93;86.82;96956.89;105638;1292;22457;-80
2022/11/08 06:30:50;;;;;;;9.10;4.60;;;;;;;9.08;85.79;96959.12;105605;1278;23690;-79
2022/11/08 06:33:22;;;;;;;5.70;3.50;;;;;;;9.29;85.42;96963.04;105647;1298;22601;-80
2022/11/08 06:35:53;;;;;;;6.60;3.50;;;;;;;9.51;84.74;96961.61;105656;1298;22464;-79
2022/11/08 06:38:24;;;;;;;6.60;4.20;;;;;;;9.65;84.05;96959.09;105596;1297;22460;-80
2022/11/08 06:40:58;;;;;;;7.50;3.80;;;;;;;9.96;83.13;96961.75;105670;1297;24269;-80
2022/11/08 06:43:30;;;;;;;6.30;4.30;;;;;;;10.16;82.03;96967.64;105691;1275;25214;-80
2022/11/08 06:46:03;;;;;;;8.00;4.70;;;;;;;10.42;81.31;96967.03;105642;1284;22451;-80
2022/11/08 06:48:34;;;;;;;6.60;4.50;;;;;;;10.70;80.15;96964.21;105643;1275;22493;-79
2022/11/08 06:51:06;;;;;;;6.20;4.10;;;;;;;10.91;79.27;96965.73;105658;1297;22458;-80
2022/11/08 06:53:39;;;;;;;7.40;4.60;;;;;;;11.43;78.55;96966.77;105678;1289;22463;-80
2022/11/08 06:56:11;;;;;;;5.40;3.70;;;;;;;11.79;77.41;96966.16;105687;1297;22454;-80
2022/11/08 06:58:43;;;;;;;5.80;4.00;;;;;;;12.17;76.36;96966.36;105587;1292;24322;-80
2022/11/08 07:01:14;;;;;;;5.50;4.20;;;;;;;12.47;75.45;96962.64;105631;1300;22964;-80
2022/11/08 07:03:45;;;;;;;6.90;4.00;;;;;;;12.72;74.37;96966.89;105612;1298;24305;-80
2022/11/08 07:06:16;;;;;;;6.40;3.90;;;;;;;13.08;73.95;96969.46;105642;1275;22533;-81
2022/11/08 07:08:48;;;;;;;5.40;3.30;;;;;;;13.53;73.60;96970.77;105608;1283;22497;-81
2022/11/08 07:11:19;;;;;;;4.80;3.30;;;;;;;14.00;72.63;96969.70;105638;1298;22453;-80
2022/11/08 07:13:51;;;;;;;6.20;4.00;;;;;;;14.09;70.70;96968.48;105662;1283;22462;-81
2022/11/08 07:16:22;;;;;;;5.60;4.10;;;;;;;14.10;69.73;96971.46;105644;1297;22463;-81
2022/11/08 07:18:54;;;;;;;5.20;3.50;;;;;;;14.20;69.15;96976.30;105648;1275;25359;-81
2022/11/08 07:21:25;;;;;;;5.50;3.70;;;;;;;14.39;68.20;96974.77;105680;1296;22498;-81
2022/11/08 07:36:15;;;;;;;4.90;3.50;;;;;;;15.01;65.32;96979.98;101796;1335;575156;-81
2022/11/08 07:38:46;;;;;;;5.70;3.40;;;;;;;15.22;63.67;96981.17;102991;1321;972879;-81
2022/11/08 07:41:18;;;;;;;6.20;3.20;;;;;;;15.45;64.36;96978.20;103942;1319;22544;-81
2022/11/08 07:43:49;;;;;;;4.40;3.10;;;;;;;15.83;63.76;96978.97;103960;1295;22477;-81
2022/11/08 07:46:20;;;;;;;3.50;3.10;;;;;;;16.04;63.18;96974.15;103935;1318;22482;-81
2022/11/08 07:48:52;;;;;;;4.30;3.20;;;;;;;16.08;61.63;96977.45;103938;1321;24350;-82
2022/11/08 07:51:23;;;;;;;5.60;3.40;;;;;;;15.92;61.34;96976.20;103946;1311;25393;-81
2022/11/08 07:53:54;;;;;;;4.80;3.10;;;;;;;15.82;60.75;96978.70;103909;1320;22503;-81
2022/11/08 07:56:25;;;;;;;3.50;2.80;;;;;;;15.81;60.29;96976.79;103906;1319;22523;-81
2022/11/08 07:58:57;;;;;;;5.10;3.60;;;;;;;15.76;60.16;96970.86;103976;1312;22499;-81
2022/11/08 08:01:28;;;;;;;5.40;3.10;;;;;;;15.72;60.08;96974.38;104820;1292;25236;-81
2022/11/08 08:04:01;;;;;;;5.20;3.90;;;;;;;15.56;59.75;96973.27;104800;1278;24143;-81
2022/11/08 08:06:32;;;;;;;7.90;3.60;;;;;;;15.61;60.06;96972.69;104795;1296;22527;-81
2022/11/08 08:09:04;;;;;;;6.10;3.20;;;;;;;15.67;60.27;96974.53;104800;1307;22474;-81
2022/11/08 08:11:35;;;;;;;4.80;3.30;;;;;;;15.49;59.58;96970.40;104823;1292;22478;-81
2022/11/08 08:14:07;;;;;;;5.20;3.60;;;;;;;15.36;60.45;96968.19;104804;1305;22470;-81
2022/11/08 08:16:40;;;;;;;4.30;3.20;;;;;;;15.50;60.64;96962.66;104736;1302;27932;-81
2022/11/08 08:19:11;;;;;;;6.30;3.20;;;;;;;15.29;59.99;96958.77;104835;1300;22530;-81
2022/11/08 08:21:42;;;;;;;5.20;3.20;;;;;;;14.93;60.01;96963.08;104813;1308;22489;-81
2022/11/08 08:24:14;;;;;;;6.60;3.60;;;;;;;14.60;60.10;96963.96;104824;1308;22572;-81
2022/11/08 08:26:45;;;;;;;4.80;3.50;;;;;;;14.30;61.13;96966.11;104755;1305;22490;-81
2022/11/08 08:29:17;;;;;;;4.90;2.80;;;;;;;14.06;61.52;96964.59;104814;1308;22483;-81
2022/11/08 08:31:48;;;;;;;5.80;3.00;;;;;;;13.83;61.78;96963.31;104814;1302;25274;-81
2022/11/08 08:34:19;;;;;;;3.90;2.90;;;;;;;13.58;62.06;96964.90;104771;1301;23379;-81
2022/11/08 08:36:50;;;;;;;4.10;2.80;;;;;;;13.39;62.69;96961.43;104756;1308;24274;-81
2022/11/08 08:39:21;;;;;;;4.90;3.10;;;;;;;13.23;63.16;96962.80;104809;1308;22502;-81
2022/11/08 08:41:52;;;;;;;5.70;3.40;;;;;;;13.05;63.52;96957.70;104795;1286;22518;-80
2022/11/08 08:44:24;;;;;;;5.20;3.50;;;;;;;12.79;64.05;96952.72;104777;1283;22505;-81
2022/11/08 08:46:57;;;;;;;7.60;3.40;;;;;;;12.53;64.65;96950.98;104770;1300;25867;-81
2022/11/08 08:49:28;;;;;;;4.90;2.80;;;;;;;12.34;65.22;96950.33;104792;1287;27450;-81
2022/11/08 08:51:59;;;;;;;4.10;3.40;;;;;;;12.18;65.99;96952.59;104773;1289;23847;-80
2022/11/08 08:54:31;;;;;;;5.20;3.10;;;;;;;12.17;66.60;96952.66;104776;1310;22506;-80
2022/11/08 08:57:02;;;;;;;4.10;2.90;;;;;;;12.20;66.98;96954.42;104712;1286;26678;-80
2022/11/08 08:59:33;;;;;;;6.80;3.70;;;;;;;12.29;67.07;96958.09;104789;1293;22490;-81
2022/11/08 09:02:05;;;;;;;5.20;3.00;;;;;;;12.34;67.36;96954.88;104795;1309;22937;-80
2022/11/08 09:04:37;;;;;;;4.90;3.20;;;;;;;12.33;66.86;96960.73;104798;1293;22993;-81
2022/11/08 09:07:09;;;;;;;6.00;3.30;;;;;;;12.33;67.47;96955.92;104750;1308;22468;-80
2022/11/08 09:09:40;;;;;;;4.40;3.30;;;;;;;12.38;67.88;96951.39;104798;1308;24290;-81
2022/11/08 09:12:11;;;;;;;4.20;3.00;;;;;;;12.50;68.44;96952.34;104792;1294;22539;-80
2022/11/08 09:14:42;;;;;;;3.40;2.50;;;;;;;12.65;68.12;96954.32;104773;1293;24703;-81
2022/11/08 09:17:14;;;;;;;6.70;2.70;;;;;;;12.72;68.00;96951.95;104738;1308;22473;-80
2022/11/08 09:19:45;;;;;;;5.00;2.70;;;;;;;12.68;67.36;96953.38;104761;1286;26427;-80
2022/11/08 09:22:16;;;;;;;3.70;2.60;;;;;;;12.62;67.49;96951.63;104812;1292;22460;-80
2022/11/08 09:24:47;;;;;;;3.50;2.40;;;;;;;12.62;67.33;96948.70;104796;1300;22556;-79
2022/11/08 09:27:19;;;;;;;5.00;2.80;;;;;;;12.55;67.31;96946.77;104740;1286;22467;-80
2022/11/08 09:29:50;;;;;;;4.80;2.90;;;;;;;12.56;67.74;96941.33;104815;1297;22541;-81
2022/11/08 09:32:23;;;;;;;4.00;2.30;;;;;;;12.69;67.91;96942.56;104827;1293;22478;-81
2022/11/08 09:34:55;;;;;;;5.30;3.20;;;;;;;12.83;67.93;96948.52;104803;1308;25401;-80
2022/11/08 09:37:26;;;;;;;4.10;2.40;;;;;;;12.94;67.18;96949.72;104762;1300;22500;-80
2022/11/08 09:40:00;;;;;;;3.90;2.50;;;;;;;13.00;66.97;96941.19;104791;1292;22502;-81
2022/11/08 09:42:49;;;;;;;5.60;3.10;;;;;;;13.12;67.01;96942.80;104798;1282;22469;-80
2022/11/08 09:45:36;;;;;;;5.40;2.90;;;;;;;13.21;66.53;96944.24;104792;1308;22474;-80
2022/11/08 09:48:17;;;;;;;4.40;2.40;;;;;;;13.17;66.21;96944.18;104755;1308;22478;-81
2022/11/08 09:50:47;;;;;;;;;;;;;;;13.24;66.45;96943.42;104812;1300;22469;-81
2022/11/08 09:53:25;;;;;;;3.50;2.00;;;;;;;13.38;66.47;96945.00;104801;1292;22536;-80
2022/11/08 09:56:02;;;;;;;4.00;2.60;;;;;;;13.44;65.91;96944.27;104807;1293;22469;-81
2022/11/08 09:58:43;;;;;;;4.90;2.50;;;;;;;13.52;66.29;96942.83;104763;1293;22487;-81
2022/11/08 10:01:15;;;;;;;5.00;2.70;;;;;;;13.68;66.22;96944.23;104779;1299;23790;-81
2022/11/08 10:03:52;;;;;;;3.60;2.80;;;;;;;13.78;65.74;96940.40;104795;1286;25327;-81
2022/11/08 10:06:38;;;;;;;4.40;2.70;;;;;;;13.87;65.96;96938.93;104761;1286;24293;-81
2022/11/08 10:09:19;;;;;;;5.10;2.80;;;;;;;13.95;65.04;96937.22;104783;1304;22613;-81
2022/11/08 10:12:07;;;;;;;4.90;2.50;;;;;;;13.93;65.06;96938.20;104815;1308;22463;-81
2022/11/08 10:14:51;;;;;;;5.10;2.80;;;;;;;14.02;65.01;96937.58;104775;1301;24130;-81
2022/11/08 10:17:43;;;;;;;4.70;2.50;;;;;;;14.09;64.41;96935.34;104774;1289;22477;-81
2022/11/08 10:20:27;;;;;;;4.30;2.60;;;;;;;14.17;64.65;96935.23;104794;1295;22482;-81
2022/11/08 10:23:07;;;;;;;3.60;2.30;;;;;;;14.20;64.50;96931.99;104819;1307;22471;-81
2022/11/08 10:25:44;;;;;;;4.70;2.40;;;;;;;14.33;64.10;96929.69;104815;1292;22483;-81
2022/11/08 10:28:19;;;;;;;3.80;2.30;;;;;;;14.48;64.47;96924.38;104766;1293;24285;-81
2022/11/08 10:30:53;;;;;;;3.40;2.10;;;;;;;14.55;63.89;96924.20;104805;1306;22478;-81
2022/11/08 10:33:31;;;;;;;4.40;2.40;;;;;;;14.62;63.72;96921.13;104776;1297;22652;-81
2022/11/08 10:36:07;;;;;;;3.40;2.40;;;;;;;14.68;63.13;96917.67;104799;1308;22512;-81
2022/11/08 10:38:45;;;;;;;3.30;2.20;;;;;;;14.72;63.24;96916.49;104795;1308;35104;-81
2022/11/08 10:41:21;;;;;;;4.30;2.60;;;;;;;14.78;63.08;96919.42;104809;1308;25473;-81
2022/11/08 10:43:58;;;;;;;3.30;2.00;;;;;;;14.79;62.44;96917.80;104796;1308;25401;-81
2022/11/08 10:46:39;;;;;;;3.80;2.00;;;;;;;14.72;62.42;96912.81;104741;1308;24265;-81
2022/11/08 10:49:20;;;;;;;2.10;1.80;;;;;;;14.71;61.51;96913.86;104815;1283;22464;-81
2022/11/08 10:51:54;;;;;;;3.80;1.90;;;;;;;14.67;60.77;96905.73;104782;1307;22471;-81
2022/11/08 10:54:49;;;;;;;2.50;1.50;;;;;;;14.62;60.37;96903.62;104790;1299;22478;-81
2022/11/08 10:57:36;;;;;;;2.60;1.80;;;;;;;14.60;60.51;96899.23;104724;1308;23316;-81
2022/11/08 11:00:39;;;;;;;2.40;1.70;;;;;;;14.73;60.96;96901.21;104794;1306;22487;-81
2022/11/08 11:03:27;;;;;;;2.90;1.80;;;;;;;14.87;60.92;96896.77;104823;1307;23039;-82
2022/11/08 11:06:01;;;;;;;4.00;2.30;;;;;;;15.01;61.29;96893.92;104807;1308;22460;-81
2022/11/08 11:08:32;;;;;;;4.00;2.20;;;;;;;15.13;61.98;96889.46;104814;1302;22484;-81
2022/11/08 11:11:26;;;;;;;3.30;2.00;;;;;;;15.26;61.76;96885.05;104809;1308;22610;-82
2022/11/08 11:14:17;;;;;;;2.80;1.70;;;;;;;15.29;60.71;96877.23;104860;1301;22554;-81
2022/11/08 11:16:57;;;;;;;3.90;1.90;;;;;;;15.29;60.56;96879.80;104758;1308;22525;-82
2022/11/08 11:19:29;;;;;;;2.90;1.40;;;;;;;15.26;60.34;96870.52;104830;1302;22599;-82
2022/11/08 11:22:06;;;;;;;3.20;1.60;;;;;;;15.27;59.80;96869.39;104813;1305;22514;-82
2022/11/08 11:24:47;;;;;;;3.90;1.80;;;;;;;15.33;60.44;96870.25;104791;1292;22474;-82
2022/11/08 11:27:24;;;;;;;2.90;1.90;;;;;;;15.47;60.05;96864.10;104729;1293;22478;-81
2022/11/08 11:30:20;;;;;;;2.10;1.50;;;;;;;15.46;58.57;96858.79;104804;1300;25271;-82
2022/11/08 11:33:04;;;;;;;2.70;1.60;;;;;;;15.52;59.57;96855.82;104900;1308;22519;-81
2022/11/08 11:35:42;;;;;;;2.90;1.90;;;;;;;15.56;58.59;96860.43;104844;1296;23218;-81
2022/11/08 11:38:29;;;;;;;5.50;2.60;;;;;;;15.52;58.35;96856.27;104816;1300;22523;-82
2022/11/08 11:41:06;;;;;;;4.10;2.30;;;;;;;15.52;58.39;96852.02;104818;1300;24340;-82
2022/11/08 11:43:43;;;;;;;3.40;2.10;;;;;;;15.54;57.81;96851.39;104868;1293;22467;-82
2022/11/08 11:46:21;;;;;;;2.40;1.80;;;;;;;15.53;57.93;96846.84;104734;1308;26480;-81
2022/11/08 11:49:00;;;;;;;3.50;2.40;;;;;;;15.56;57.89;96849.61;104867;1300;22495;-82
2022/11/08 11:51:32;;;;;;;3.80;2.00;;;;;;;15.61;58.07;96850.77;104806;1308;24265;-82
2022/11/08 11:54:06;;;;;;;3.60;2.40;;;;;;;15.67;58.00;96844.64;104777;1293;22476;-81
2022/11/08 11:56:53;;;;;;;3.90;2.50;;;;;;;15.60;57.34;96845.96;104778;1301;22486;-81
2022/11/08 11:59:53;;;;;;;3.60;2.20;;;;;;;15.63;57.72;96847.25;104766;1293;22480;-81
2022/11/08 12:02:54;;;;;;;3.40;2.20;;;;;;;15.62;57.27;96847.33;104779;1292;25366;-82
2022/11/08 12:05:34;;;;;;;3.30;2.30;;;;;;;15.58;57.43;96849.21;104804;1308;25316;-81
2022/11/08 12:08:18;;;;;;;3.30;2.30;;;;;;;15.53;56.70;96848.44;104784;1308;22465;-81
2022/11/08 12:11:16;;;;;;;4.40;2.10;;;;;;;15.41;56.68;96841.65;104784;1308;22520;-81
2022/11/08 12:14:07;;;;;;;3.50;1.90;;;;;;;15.39;56.65;96838.65;104881;1302;22479;-81
2022/11/08 12:16:45;;;;;;;3.00;2.00;;;;;;;15.35;56.61;96838.32;104745;1307;22487;-82
2022/11/08 12:19:38;;;;;;;4.00;2.10;;;;;;;15.41;57.35;96833.58;104808;1282;22517;-81
2022/11/08 12:22:35;;;;;;;3.90;2.30;;;;;;;15.47;56.46;96830.80;104827;1308;22476;-82
2022/11/08 12:25:17;;;;;;;3.10;2.10;;;;;;;15.57;57.45;96828.08;104786;1300;22475;-82
2022/11/08 12:27:52;;;;;;;3.00;2.00;;;;;;;15.71;56.10;96825.79;104713;1308;22527;-82
2022/11/08 12:30:36;;;;;;;2.40;1.90;;;;;;;15.67;55.77;96825.73;104820;1308;22548;-81
2022/11/08 12:33:34;;;;;;;3.20;1.90;;;;;;;15.64;55.52;96826.13;104776;1288;25356;-82
2022/11/08 12:36:16;;;;;;;4.80;2.40;;;;;;;15.68;55.91;96825.52;104805;1298;22496;-82
2022/11/08 12:39:00;;;;;;;3.70;2.40;;;;;;;15.71;55.98;96826.63;104770;1300;22556;-81
2022/11/08 12:41:39;;;;;;;2.80;2.20;;;;;;;15.77;56.45;96827.40;104800;1292;22477;-82